Weather at GK Tavriya Resort Seaside Helipad

Public forecast

Using degrees Celsius for public forecast. Weather courtesy of forecast.io.

Closest aviation weather report (METAR) to GK Tavriya Resort Seaside Helipad

Closest report is Anapa Vityazevo Airport, 152.3 nm (282.1 km) ENE.

2024/02/24 03:30 (retrieved 32 minutes ago)

URKA 240330Z 12003MPS CAVOK 01/M01 Q1026 R04/010070 TEMPO SCT040 RMK QFE765/1020

Closest aviation forecast (TAF) to GK Tavriya Resort Seaside Helipad

Forecast is more than 12 hours old.

Closest forecast is Kukës International Airport, 605.2 nm (1,120.8 km) W.

2024/02/23 12:00 Ammendment (retrieved 16 hours ago)

TAF AMD LAKU 231500Z 2312/2412 CNL